Time;durP1;ratioP1;P1;durP2;ratioP2;P2;SDS_P1;SDS_P2;PMS_P1;PMS_P2;Temp;Humidity;BMP_temperature;BMP_pressure;BME280_temperature;BME280_humidity;BME280_pressure;Samples;Min_cycle;Max_cycle;Signal;HPM_P1;HPM_P2
2023/06/14 00:00:10;;;;;;;;;;;22.00;89.80;;;;;;5117550;28;19908;-42
2023/06/14 00:02:35;;;;;;;;;;;22.00;89.80;;;;;;5117162;28;19956;-42
2023/06/14 00:05:01;;;;;;;;;;;22.00;89.80;;;;;;5117504;28;19908;-42
2023/06/14 00:07:36;;;;;;;;;;;22.00;89.80;;;;;;5117404;28;19914;-43
2023/06/14 00:10:04;;;;;;;;;;;21.90;89.70;;;;;;5117405;28;19914;-43
2023/06/14 00:12:31;;;;;;;;;;;21.90;89.80;;;;;;5117370;28;19933;-45
2023/06/14 00:14:56;;;;;;;;;;;21.90;89.80;;;;;;5117152;28;19951;-41
2023/06/14 00:17:22;;;;;;;;;;;21.90;89.80;;;;;;5117210;28;19912;-44
2023/06/14 00:19:48;;;;;;;;;;;22.00;89.80;;;;;;5116357;28;20271;-43
2023/06/14 00:22:13;;;;;;;;;;;21.90;89.80;;;;;;5117047;28;20358;-42
2023/06/14 00:24:39;;;;;;;;;;;21.90;89.80;;;;;;5117067;28;19912;-44
2023/06/14 00:27:05;;;;;;;;;;;21.90;89.80;;;;;;5117088;28;19951;-42
2023/06/14 00:29:30;;;;;;;;;;;22.00;89.80;;;;;;5116694;28;19968;-42
2023/06/14 00:31:56;;;;;;;;;;;21.90;90.10;;;;;;5116930;28;20386;-42
2023/06/14 00:34:21;;;;;;;;;;;21.90;89.80;;;;;;5116529;28;20408;-43
2023/06/14 00:36:47;;;;;;;;;;;21.90;89.80;;;;;;5116825;28;19999;-43
2023/06/14 00:39:13;;;;;;;;;;;21.90;89.80;;;;;;5117130;28;19965;-43
2023/06/14 00:41:39;;;;;;;;;;;22.00;89.80;;;;;;5116773;28;19912;-44
2023/06/14 00:44:04;;;;;;;;;;;21.90;89.80;;;;;;5116702;28;20351;-42
2023/06/14 00:46:29;;;;;;;;;;;21.90;89.80;;;;;;5116297;28;19912;-42
2023/06/14 00:48:56;;;;;;;;;;;21.90;89.80;;;;;;5116615;28;19915;-42
2023/06/14 00:51:22;;;;;;;;;;;22.00;89.90;;;;;;5116889;28;19908;-42
2023/06/14 00:53:47;;;;;;;;;;;21.90;89.80;;;;;;5116505;28;20335;-43
2023/06/14 00:56:14;;;;;;;;;;;21.90;89.80;;;;;;5116330;28;19919;-43
2023/06/14 00:58:40;;;;;;;;;;;21.90;89.80;;;;;;5116349;28;19923;-42
2023/06/14 01:01:06;;;;;;;;;;;21.90;89.80;;;;;;5116414;28;19911;-44
2023/06/14 01:03:32;;;;;;;;;;;21.90;89.80;;;;;;5116725;28;19960;-45
2023/06/14 01:06:02;;;;;;;;;;;21.90;89.80;;;;;;5116275;28;19907;-43
2023/06/14 01:08:37;;;;;;;;;;;21.90;89.80;;;;;;5116247;28;19908;-42
2023/06/14 01:11:05;;;;;;;;;;;21.90;89.80;;;;;;5115932;28;19915;-43
2023/06/14 01:13:33;;;;;;;;;;;21.90;89.80;;;;;;5116153;28;19912;-41
2023/06/14 01:15:59;;;;;;;;;;;21.90;89.80;;;;;;5116019;28;20104;-43
2023/06/14 01:18:25;;;;;;;;;;;21.90;89.80;;;;;;5116062;28;19912;-43
2023/06/14 01:20:54;;;;;;;;;;;21.90;89.80;;;;;;5116048;28;20305;-46
2023/06/14 01:23:21;;;;;;;;;;;21.90;89.80;;;;;;5115880;28;20315;-44
2023/06/14 01:25:46;;;;;;;;;;;21.90;89.80;;;;;;5115845;28;19915;-42
2023/06/14 01:28:14;;;;;;;;;;;21.90;89.80;;;;;;5115787;28;19912;-44
2023/06/14 01:30:44;;;;;;;;;;;21.90;89.80;;;;;;5115306;28;19911;-42
2023/06/14 01:33:12;;;;;;;;;;;21.90;89.80;;;;;;5115429;28;19916;-45
2023/06/14 01:35:38;;;;;;;;;;;21.90;89.90;;;;;;5115523;28;19927;-44
2023/06/14 01:38:05;;;;;;;;;;;21.90;89.80;;;;;;5115396;28;19912;-45
2023/06/14 01:40:31;;;;;;;;;;;21.90;89.80;;;;;;5115635;28;20358;-43
2023/06/14 01:42:57;;;;;;;;;;;21.90;89.80;;;;;;5115282;28;19908;-43
2023/06/14 01:45:22;;;;;;;;;;;21.90;89.80;;;;;;5115126;28;20434;-43
2023/06/14 01:47:48;;;;;;;;;;;21.90;89.80;;;;;;5115483;28;19919;-43
2023/06/14 01:50:13;;;;;;;;;;;21.90;89.80;;;;;;5115404;28;20342;-43
2023/06/14 01:52:39;;;;;;;;;;;21.90;89.80;;;;;;5115394;28;19988;-42
2023/06/14 01:55:05;;;;;;;;;;;21.90;89.80;;;;;;5115421;28;20282;-43
2023/06/14 01:57:31;;;;;;;;;;;21.90;89.80;;;;;;5115222;28;19918;-42
2023/06/14 01:59:56;;;;;;;;;;;21.90;89.80;;;;;;5115487;28;19908;-46
2023/06/14 02:02:22;;;;;;;;;;;21.90;89.80;;;;;;5115142;28;19947;-44
2023/06/14 02:04:47;;;;;;;;;;;21.90;89.80;;;;;;5115080;28;19908;-44
2023/06/14 02:07:13;;;;;;;;;;;21.90;89.80;;;;;;5115145;28;19908;-46
2023/06/14 02:09:40;;;;;;;;;;;21.80;89.80;;;;;;5114971;28;20278;-43
2023/06/14 02:12:06;;;;;;;;;;;21.90;89.80;;;;;;5114703;28;20374;-42
2023/06/14 02:14:31;;;;;;;;;;;21.90;89.80;;;;;;5114903;28;19918;-46
2023/06/14 02:16:56;;;;;;;;;;;21.90;89.80;;;;;;5114920;28;19998;-42
2023/06/14 02:19:22;;;;;;;;;;;21.80;89.80;;;;;;5114606;28;19907;-47
2023/06/14 02:21:47;;;;;;;;;;;21.90;89.80;;;;;;5114800;28;19908;-43
2023/06/14 02:24:13;;;;;;;;;;;21.90;89.80;;;;;;5114859;28;19915;-42
2023/06/14 02:26:39;;;;;;;;;;;21.90;89.80;;;;;;5114445;28;19998;-42
2023/06/14 02:29:05;;;;;;;;;;;21.80;89.80;;;;;;5114566;28;19915;-42
2023/06/14 02:31:31;;;;;;;;;;;21.90;89.80;;;;;;5114643;28;19951;-43
2023/06/14 02:33:57;;;;;;;;;;;21.80;89.80;;;;;;5114608;28;19908;-44
2023/06/14 02:36:22;;;;;;;;;;;21.90;89.80;;;;;;5114317;28;20389;-43
2023/06/14 02:38:48;;;;;;;;;;;21.80;89.80;;;;;;5096343;28;19919;-43
2023/06/14 02:41:13;;;;;;;;;;;21.80;89.80;;;;;;5114298;28;20002;-43
2023/06/14 02:43:39;;;;;;;;;;;21.90;89.90;;;;;;5114416;28;20374;-47
2023/06/14 02:46:04;;;;;;;;;;;21.90;89.80;;;;;;5114246;28;19994;-43
2023/06/14 02:48:30;;;;;;;;;;;21.90;89.90;;;;;;5114024;28;19920;-42
2023/06/14 02:50:56;;;;;;;;;;;21.90;89.80;;;;;;5114478;28;19919;-44
2023/06/14 02:53:22;;;;;;;;;;;21.90;89.80;;;;;;5114409;28;19908;-46
2023/06/14 02:55:48;;;;;;;;;;;21.80;89.80;;;;;;5114340;28;20006;-44
2023/06/14 02:58:14;;;;;;;;;;;21.80;89.80;;;;;;5114415;28;19965;-46
2023/06/14 03:00:40;;;;;;;;;;;21.80;89.80;;;;;;5114111;28;19915;-44
2023/06/14 03:03:13;;;;;;;;;;;21.80;89.70;;;;;;5114413;28;19916;-43
2023/06/14 03:05:40;;;;;;;;;;;21.80;89.80;;;;;;5114407;28;19907;-45
2023/06/14 03:08:06;;;;;;;;;;;21.80;89.70;;;;;;5114372;28;19912;-42
2023/06/14 03:10:32;;;;;;;;;;;21.80;89.70;;;;;;5114262;28;19915;-42
2023/06/14 03:12:57;;;;;;;;;;;21.80;89.70;;;;;;5114531;28;19908;-43
2023/06/14 03:15:24;;;;;;;;;;;21.80;89.80;;;;;;5113897;28;20358;-47
2023/06/14 03:17:50;;;;;;;;;;;21.80;89.80;;;;;;5114309;28;20010;-42
2023/06/14 03:20:16;;;;;;;;;;;21.80;89.70;;;;;;5114204;28;20002;-43
2023/06/14 03:22:41;;;;;;;;;;;21.80;89.80;;;;;;5114178;28;19962;-43
2023/06/14 03:25:08;;;;;;;;;;;21.80;89.80;;;;;;5114128;28;20421;-45
2023/06/14 03:27:33;;;;;;;;;;;21.80;89.80;;;;;;5114034;28;19908;-45
2023/06/14 03:29:58;;;;;;;;;;;21.80;89.80;;;;;;5114027;28;20037;-42
2023/06/14 03:32:24;;;;;;;;;;;21.80;89.80;;;;;;5113717;28;19961;-43
2023/06/14 03:34:50;;;;;;;;;;;21.80;89.80;;;;;;5113553;28;19919;-42
2023/06/14 03:37:16;;;;;;;;;;;21.80;89.80;;;;;;5113963;28;20419;-44
2023/06/14 03:39:46;;;;;;;;;;;21.80;89.80;;;;;;5113707;28;19908;-44
2023/06/14 03:42:12;;;;;;;;;;;21.80;89.80;;;;;;5113724;28;20262;-43
2023/06/14 03:44:38;;;;;;;;;;;21.90;89.80;;;;;;5113946;28;20262;-43
2023/06/14 03:47:04;;;;;;;;;;;21.80;89.70;;;;;;5113668;28;19919;-41
2023/06/14 03:49:30;;;;;;;;;;;21.90;89.80;;;;;;5113925;28;19914;-42
2023/06/14 03:51:55;;;;;;;;;;;21.80;89.70;;;;;;5114107;28;19919;-42
2023/06/14 03:54:21;;;;;;;;;;;21.90;89.70;;;;;;5113967;28;19916;-42
2023/06/14 03:56:47;;;;;;;;;;;21.90;89.70;;;;;;5099092;28;19961;-42
2023/06/14 03:59:12;;;;;;;;;;;21.90;89.70;;;;;;5117344;28;20282;-42
2023/06/14 04:01:44;;;;;;;;;;;21.90;89.70;;;;;;5117073;28;19915;-42
2023/06/14 04:04:10;;;;;;;;;;;21.90;89.60;;;;;;5117292;28;19908;-47
2023/06/14 04:06:35;;;;;;;;;;;21.90;89.70;;;;;;5117328;28;20388;-45
2023/06/14 04:09:02;;;;;;;;;;;21.90;89.60;;;;;;5117041;28;19933;-43
2023/06/14 04:11:27;;;;;;;;;;;21.90;89.70;;;;;;5116910;28;20385;-44
2023/06/14 04:13:53;;;;;;;;;;;21.90;89.70;;;;;;5117014;28;19912;-43
2023/06/14 04:16:19;;;;;;;;;;;21.90;89.80;;;;;;5116944;28;20398;-42
2023/06/14 04:18:46;;;;;;;;;;;21.90;89.80;;;;;;5116974;28;20070;-43
2023/06/14 04:21:11;;;;;;;;;;;21.90;89.80;;;;;;5098792;28;19927;-41
2023/06/14 04:23:37;;;;;;;;;;;21.90;89.80;;;;;;5116858;28;19908;-44
2023/06/14 04:26:04;;;;;;;;;;;21.90;89.70;;;;;;5116796;28;20008;-45
2023/06/14 04:28:29;;;;;;;;;;;21.90;89.70;;;;;;5117126;28;19915;-43
2023/06/14 04:30:55;;;;;;;;;;;21.90;89.70;;;;;;5116827;28;19915;-42
2023/06/14 04:33:20;;;;;;;;;;;21.90;89.70;;;;;;5116768;28;19908;-43
2023/06/14 04:35:53;;;;;;;;;;;21.90;89.70;;;;;;5116589;28;19919;-42
2023/06/14 04:38:23;;;;;;;;;;;21.90;89.70;;;;;;5116593;28;19919;-46
2023/06/14 04:40:52;;;;;;;;;;;21.90;89.70;;;;;;5116703;28;19915;-42
2023/06/14 04:43:18;;;;;;;;;;;21.90;89.80;;;;;;5116943;28;19915;-43
2023/06/14 04:45:46;;;;;;;;;;;21.90;89.80;;;;;;5116480;28;20010;-44
2023/06/14 04:48:12;;;;;;;;;;;21.90;89.80;;;;;;5116338;28;19996;-45
2023/06/14 04:50:37;;;;;;;;;;;21.90;89.80;;;;;;5116358;28;20281;-44
2023/06/14 04:53:03;;;;;;;;;;;21.90;89.80;;;;;;5116313;28;19908;-43
2023/06/14 04:55:28;;;;;;;;;;;21.90;89.80;;;;;;5116118;28;19911;-45
2023/06/14 04:57:54;;;;;;;;;;;21.90;89.80;;;;;;5098041;28;19988;-45
2023/06/14 05:00:20;;;;;;;;;;;21.90;89.80;;;;;;5116165;28;19914;-42
2023/06/14 05:02:46;;;;;;;;;;;21.90;89.80;;;;;;5116249;28;19965;-43
2023/06/14 05:05:12;;;;;;;;;;;21.90;89.80;;;;;;5115929;28;19968;-43
2023/06/14 05:07:38;;;;;;;;;;;21.90;89.90;;;;;;5115591;28;20366;-44
2023/06/14 05:10:05;;;;;;;;;;;22.00;90.00;;;;;;5116095;28;19943;-46
2023/06/14 05:12:30;;;;;;;;;;;21.90;89.90;;;;;;5115903;28;19908;-46
2023/06/14 05:14:58;;;;;;;;;;;21.90;89.90;;;;;;5115473;28;20327;-44
2023/06/14 05:17:23;;;;;;;;;;;21.90;90.00;;;;;;5115432;28;19911;-45
2023/06/14 05:19:49;;;;;;;;;;;21.90;90.00;;;;;;5115679;28;19914;-43
2023/06/14 05:22:15;;;;;;;;;;;21.90;90.20;;;;;;5115548;28;19998;-44
2023/06/14 05:24:41;;;;;;;;;;;21.90;90.00;;;;;;5115583;28;19975;-46
2023/06/14 05:27:07;;;;;;;;;;;21.90;90.00;;;;;;5115474;28;19915;-43
2023/06/14 05:29:32;;;;;;;;;;;21.90;90.00;;;;;;5115198;28;19907;-44
2023/06/14 05:31:58;;;;;;;;;;;21.90;90.00;;;;;;5115568;28;19915;-46
2023/06/14 05:34:23;;;;;;;;;;;21.90;90.00;;;;;;5115321;28;19981;-44
2023/06/14 05:36:48;;;;;;;;;;;21.90;90.00;;;;;;5114680;28;19974;-43
2023/06/14 05:39:14;;;;;;;;;;;21.90;90.00;;;;;;5114968;28;19915;-46
2023/06/14 05:41:40;;;;;;;;;;;21.90;90.00;;;;;;5115155;28;19912;-45
2023/06/14 05:44:05;;;;;;;;;;;21.90;90.00;;;;;;5114936;28;19911;-43
2023/06/14 05:46:31;;;;;;;;;;;21.90;90.00;;;;;;5114909;28;20351;-45
2023/06/14 05:48:56;;;;;;;;;;;21.90;90.00;;;;;;5115091;28;20239;-43
2023/06/14 05:51:24;;;;;;;;;;;21.90;90.00;;;;;;5115172;28;19914;-43
2023/06/14 05:53:50;;;;;;;;;;;21.90;90.00;;;;;;5114929;28;19914;-44
2023/06/14 05:56:17;;;;;;;;;;;21.90;90.00;;;;;;5114422;28;19916;-43
2023/06/14 05:58:43;;;;;;;;;;;21.90;90.00;;;;;;5114588;28;19998;-45
2023/06/14 06:01:09;;;;;;;;;;;21.90;90.00;;;;;;5114820;28;19951;-46
2023/06/14 06:03:34;;;;;;;;;;;21.90;90.00;;;;;;5114672;28;19908;-43
2023/06/14 06:06:00;;;;;;;;;;;21.90;90.00;;;;;;5114902;28;19994;-46
2023/06/14 06:08:26;;;;;;;;;;;21.90;90.00;;;;;;5114714;28;19912;-46
2023/06/14 06:10:52;;;;;;;;;;;21.90;90.00;;;;;;5114693;28;19908;-44
2023/06/14 06:13:17;;;;;;;;;;;21.90;90.00;;;;;;5096361;28;19908;-45
2023/06/14 06:15:43;;;;;;;;;;;21.90;90.00;;;;;;5114575;28;19912;-45
2023/06/14 06:18:08;;;;;;;;;;;21.90;89.90;;;;;;5114126;28;19912;-43
2023/06/14 06:20:34;;;;;;;;;;;21.90;90.00;;;;;;5114376;28;20319;-44
2023/06/14 06:23:00;;;;;;;;;;;21.90;89.90;;;;;;5114114;28;19908;-45
2023/06/14 06:25:26;;;;;;;;;;;21.90;89.60;;;;;;5113901;28;19908;-45
2023/06/14 06:27:52;;;;;;;;;;;21.90;89.10;;;;;;5113819;28;19908;-46
2023/06/14 06:30:18;;;;;;;;;;;21.90;89.30;;;;;;5114084;28;20354;-44
2023/06/14 06:32:44;;;;;;;;;;;21.90;89.70;;;;;;5114150;28;20338;-46
2023/06/14 06:35:10;;;;;;;;;;;21.90;89.70;;;;;;5113929;28;19956;-45
2023/06/14 06:37:36;;;;;;;;;;;21.90;89.80;;;;;;5113913;28;19916;-43
2023/06/14 06:40:03;;;;;;;;;;;21.90;89.70;;;;;;5114126;28;19908;-43
2023/06/14 06:42:29;;;;;;;;;;;21.90;89.70;;;;;;5114232;28;19939;-42
2023/06/14 06:44:54;;;;;;;;;;;21.80;89.30;;;;;;5114287;28;19931;-45
2023/06/14 06:47:20;;;;;;;;;;;21.90;89.50;;;;;;5114041;28;19920;-48
2023/06/14 06:49:45;;;;;;;;;;;21.90;89.80;;;;;;5113832;28;19947;-47
2023/06/14 06:52:11;;;;;;;;;;;21.90;89.80;;;;;;5113828;28;19915;-46
2023/06/14 06:54:36;;;;;;;;;;;21.90;89.90;;;;;;5114067;28;19915;-46
2023/06/14 06:57:02;;;;;;;;;;;21.90;89.80;;;;;;5095840;28;20308;-46
2023/06/14 06:59:28;;;;;;;;;;;21.90;89.50;;;;;;5114186;28;19908;-46
2023/06/14 07:01:53;;;;;;;;;;;21.90;89.70;;;;;;5114091;28;19908;-48
2023/06/14 07:04:19;;;;;;;;;;;21.80;89.60;;;;;;5113976;28;19908;-44
2023/06/14 07:06:46;;;;;;;;;;;21.80;89.30;;;;;;5114230;28;19915;-45
2023/06/14 07:09:13;;;;;;;;;;;21.80;89.50;;;;;;5114072;28;20006;-45
2023/06/14 07:11:39;;;;;;;;;;;21.80;89.60;;;;;;5114098;28;19930;-45
2023/06/14 07:14:05;;;;;;;;;;;21.80;89.70;;;;;;5113805;28;19971;-44
2023/06/14 07:16:30;;;;;;;;;;;21.80;89.70;;;;;;5113939;28;19958;-43
2023/06/14 07:18:56;;;;;;;;;;;21.90;89.80;;;;;;5114235;28;20358;-45
2023/06/14 07:21:21;;;;;;;;;;;21.90;89.40;;;;;;5114216;28;19908;-44
2023/06/14 07:23:47;;;;;;;;;;;21.80;89.50;;;;;;5114034;28;19912;-43
2023/06/14 07:26:12;;;;;;;;;;;21.90;89.70;;;;;;5095508;28;20258;-44
2023/06/14 07:28:38;;;;;;;;;;;21.90;88.80;;;;;;5114114;28;19968;-44
2023/06/14 07:31:03;;;;;;;;;;;21.80;89.10;;;;;;5116472;28;20377;-45
2023/06/14 07:33:29;;;;;;;;;;;21.80;89.50;;;;;;5117573;28;19933;-44
2023/06/14 07:35:55;;;;;;;;;;;21.80;89.50;;;;;;5117901;28;19938;-43
2023/06/14 07:38:20;;;;;;;;;;;21.80;88.40;;;;;;5117829;28;19919;-42
2023/06/14 07:40:46;;;;;;;;;;;21.80;88.10;;;;;;5117730;28;20012;-42
2023/06/14 07:43:11;;;;;;;;;;;21.80;87.30;;;;;;5098946;28;19907;-44
2023/06/14 07:45:37;;;;;;;;;;;21.80;87.20;;;;;;5117554;28;19930;-45
2023/06/14 07:48:02;;;;;;;;;;;21.80;88.10;;;;;;5117767;28;19945;-42
2023/06/14 07:50:28;;;;;;;;;;;21.80;88.80;;;;;;5117952;28;19926;-42
2023/06/14 07:52:54;;;;;;;;;;;21.80;87.40;;;;;;5117356;28;19939;-43
2023/06/14 07:55:20;;;;;;;;;;;21.80;87.20;;;;;;5117293;28;19966;-43
2023/06/14 07:57:46;;;;;;;;;;;21.80;88.60;;;;;;5117450;28;19919;-46
2023/06/14 08:00:15;;;;;;;;;;;21.90;89.10;;;;;;5117500;28;19916;-42
2023/06/14 08:02:41;;;;;;;;;;;21.80;88.40;;;;;;5117223;28;19923;-46
2023/06/14 08:05:07;;;;;;;;;;;21.80;87.10;;;;;;5117297;28;19907;-45
2023/06/14 08:07:32;;;;;;;;;;;21.80;88.30;;;;;;5116963;28;19908;-43
2023/06/14 08:09:57;;;;;;;;;;;21.80;87.50;;;;;;5117595;28;19915;-44
2023/06/14 08:12:23;;;;;;;;;;;21.80;88.20;;;;;;5117272;28;19908;-44
2023/06/14 08:14:49;;;;;;;;;;;21.80;87.10;;;;;;5116992;28;19934;-42
2023/06/14 08:17:14;;;;;;;;;;;21.80;87.10;;;;;;5116909;28;20287;-44
2023/06/14 08:19:40;;;;;;;;;;;21.80;88.20;;;;;;5098774;28;19959;-42
2023/06/14 08:22:06;;;;;;;;;;;21.80;87.40;;;;;;5098678;28;19916;-43
2023/06/14 08:24:32;;;;;;;;;;;21.80;87.60;;;;;;5116903;28;19908;-43
2023/06/14 08:27:00;;;;;;;;;;;21.80;87.10;;;;;;5117065;28;20359;-45
2023/06/14 08:29:29;;;;;;;;;;;21.80;86.20;;;;;;5116775;28;20266;-43
2023/06/14 08:31:54;;;;;;;;;;;21.80;86.90;;;;;;5116523;28;20389;-44
2023/06/14 08:34:20;;;;;;;;;;;21.80;87.60;;;;;;5116600;28;19943;-49
2023/06/14 08:36:46;;;;;;;;;;;21.80;88.00;;;;;;5116178;28;19920;-43
2023/06/14 08:39:11;;;;;;;;;;;21.80;86.70;;;;;;5116698;28;20312;-44
2023/06/14 08:41:37;;;;;;;;;;;21.80;87.80;;;;;;5116279;28;20335;-42
2023/06/14 08:44:02;;;;;;;;;;;21.80;86.60;;;;;;5116114;28;19908;-45
2023/06/14 08:46:32;;;;;;;;;;;21.80;87.50;;;;;;5116349;28;19915;-44
2023/06/14 08:48:58;;;;;;;;;;;21.80;87.30;;;;;;5116120;28;19916;-45
2023/06/14 08:51:26;;;;;;;;;;;21.80;87.90;;;;;;5116326;28;20008;-44
2023/06/14 08:53:53;;;;;;;;;;;21.80;87.60;;;;;;5116241;28;19915;-45
2023/06/14 08:56:20;;;;;;;;;;;21.80;86.60;;;;;;5116203;28;19919;-43
2023/06/14 08:58:48;;;;;;;;;;;21.80;86.20;;;;;;5097908;28;19911;-45
2023/06/14 09:01:14;;;;;;;;;;;21.80;86.10;;;;;;5116025;28;19907;-43
2023/06/14 09:03:43;;;;;;;;;;;21.80;86.40;;;;;;5116189;28;20006;-43
2023/06/14 09:06:13;;;;;;;;;;;21.80;85.80;;;;;;5115869;28;20315;-43
2023/06/14 09:08:42;;;;;;;;;;;21.80;85.70;;;;;;5115983;28;19973;-43
2023/06/14 09:11:08;;;;;;;;;;;21.80;86.20;;;;;;5115906;28;19908;-46
2023/06/14 09:13:34;;;;;;;;;;;21.80;87.50;;;;;;5115988;28;20010;-43
2023/06/14 09:16:00;;;;;;;;;;;21.80;88.00;;;;;;5115814;28;19912;-44
2023/06/14 09:18:43;;;;;;;;;;;21.80;87.10;;;;;;5116369;28;20359;-43
2023/06/14 09:21:09;;;;;;;;;;;21.80;88.00;;;;;;5115799;28;19908;-43
2023/06/14 09:23:44;;;;;;;;;;;21.80;86.50;;;;;;5115863;28;19958;-46
2023/06/14 09:26:11;;;;;;;;;;;21.80;86.10;;;;;;5115860;28;19915;-46
2023/06/14 09:28:40;;;;;;;;;;;21.80;86.90;;;;;;5115286;28;20370;-44
2023/06/14 09:31:08;;;;;;;;;;;21.80;86.30;;;;;;5115291;28;19912;-45
2023/06/14 09:33:34;;;;;;;;;;;21.80;86.20;;;;;;5115500;28;20271;-44
2023/06/14 09:35:59;;;;;;;;;;;21.70;85.80;;;;;;5115242;28;19919;-44
2023/06/14 09:38:26;;;;;;;;;;;21.80;85.80;;;;;;5115088;28;19912;-43
2023/06/14 09:40:51;;;;;;;;;;;21.80;85.80;;;;;;5115018;28;19941;-43
2023/06/14 09:43:18;;;;;;;;;;;21.80;85.80;;;;;;5115259;28;20006;-43
2023/06/14 09:45:45;;;;;;;;;;;21.80;85.60;;;;;;5115323;28;19915;-45
2023/06/14 09:48:11;;;;;;;;;;;21.80;86.10;;;;;;5115129;28;19924;-45
2023/06/14 09:50:37;;;;;;;;;;;21.80;85.80;;;;;;5114898;28;19908;-44
2023/06/14 09:53:06;;;;;;;;;;;21.80;86.40;;;;;;5114085;28;20328;-43
2023/06/14 09:55:33;;;;;;;;;;;21.80;86.20;;;;;;5114681;28;19916;-45
2023/06/14 09:57:59;;;;;;;;;;;21.80;86.20;;;;;;5096645;28;19912;-46
2023/06/14 10:00:25;;;;;;;;;;;21.80;85.90;;;;;;5115180;28;19915;-47
2023/06/14 10:02:54;;;;;;;;;;;21.80;85.50;;;;;;5114986;28;19907;-43
2023/06/14 10:05:20;;;;;;;;;;;21.80;86.20;;;;;;5114947;28;19908;-43
2023/06/14 10:07:53;;;;;;;;;;;21.80;85.90;;;;;;5096676;28;20002;-45
2023/06/14 10:10:18;;;;;;;;;;;21.70;85.80;;;;;;5114557;28;19908;-43
2023/06/14 10:12:44;;;;;;;;;;;21.80;85.80;;;;;;5114559;28;20328;-45
2023/06/14 10:15:11;;;;;;;;;;;21.80;85.80;;;;;;5114388;28;19918;-44
2023/06/14 10:17:48;;;;;;;;;;;21.80;85.70;;;;;;5114713;28;20274;-45
2023/06/14 10:20:19;;;;;;;;;;;21.80;85.80;;;;;;5114779;28;19915;-47
2023/06/14 10:22:50;;;;;;;;;;;21.80;86.80;;;;;;5114610;28;19908;-44
2023/06/14 10:25:28;;;;;;;;;;;21.80;86.90;;;;;;5114316;28;20431;-45
2023/06/14 10:28:14;;;;;;;;;;;21.80;86.80;;;;;;5114471;28;19929;-43
2023/06/14 10:30:39;;;;;;;;;;;21.80;86.30;;;;;;5114530;28;20347;-46
2023/06/14 10:33:10;;;;;;;;;;;21.80;85.80;;;;;;5114296;28;19908;-43
2023/06/14 10:35:35;;;;;;;;;;;21.80;85.90;;;;;;5113980;28;20014;-43
2023/06/14 10:38:07;;;;;;;;;;;21.80;85.80;;;;;;5114503;28;20040;-47
2023/06/14 10:40:33;;;;;;;;;;;21.80;85.60;;;;;;5114548;28;19907;-46
2023/06/14 10:42:59;;;;;;;;;;;21.80;85.90;;;;;;5114116;28;19915;-44
2023/06/14 10:45:24;;;;;;;;;;;21.80;85.70;;;;;;5096033;28;20262;-45
2023/06/14 10:47:52;;;;;;;;;;;21.80;85.80;;;;;;5113996;28;19919;-43
2023/06/14 10:50:27;;;;;;;;;;;21.80;85.70;;;;;;5114144;28;19908;-43
2023/06/14 10:52:52;;;;;;;;;;;21.80;85.10;;;;;;5114180;28;19908;-43
2023/06/14 10:55:18;;;;;;;;;;;21.80;85.50;;;;;;5114005;28;19912;-43
2023/06/14 10:57:51;;;;;;;;;;;21.80;85.50;;;;;;5113943;28;19911;-44
2023/06/14 11:00:17;;;;;;;;;;;21.80;85.50;;;;;;5114050;28;19916;-45
2023/06/14 11:02:59;;;;;;;;;;;21.80;85.20;;;;;;5113683;28;20364;-45
2023/06/14 11:05:29;;;;;;;;;;;21.80;85.20;;;;;;5118065;28;19908;-43
2023/06/14 11:08:11;;;;;;;;;;;21.80;85.40;;;;;;5118178;28;19995;-45
2023/06/14 11:10:37;;;;;;;;;;;21.80;85.40;;;;;;5118166;28;20354;-43
2023/06/14 11:13:03;;;;;;;;;;;21.80;85.30;;;;;;5118226;28;19915;-43
2023/06/14 11:15:30;;;;;;;;;;;21.80;85.30;;;;;;5118162;28;19911;-46
2023/06/14 11:17:57;;;;;;;;;;;21.80;85.30;;;;;;5118240;28;20346;-45
2023/06/14 11:20:26;;;;;;;;;;;21.80;85.20;;;;;;5117821;28;19908;-46
2023/06/14 11:22:52;;;;;;;;;;;21.80;84.90;;;;;;5117773;28;19915;-45
2023/06/14 11:25:18;;;;;;;;;;;21.80;85.10;;;;;;5117709;28;20196;-45
2023/06/14 11:27:44;;;;;;;;;;;21.80;85.20;;;;;;5118172;28;19915;-45
2023/06/14 11:30:10;;;;;;;;;;;21.80;84.90;;;;;;5117481;28;19914;-43
2023/06/14 11:32:36;;;;;;;;;;;21.80;84.70;;;;;;5117271;28;19912;-43
2023/06/14 11:35:05;;;;;;;;;;;21.80;84.90;;;;;;5099371;28;19911;-44
2023/06/14 11:37:31;;;;;;;;;;;21.80;84.90;;;;;;5117373;28;19947;-43
2023/06/14 11:39:57;;;;;;;;;;;21.80;85.00;;;;;;5117791;28;19912;-43
2023/06/14 11:42:22;;;;;;;;;;;21.80;84.90;;;;;;5117919;28;19908;-44
2023/06/14 11:44:49;;;;;;;;;;;21.80;84.90;;;;;;5117509;28;19915;-43
2023/06/14 11:47:14;;;;;;;;;;;21.80;84.70;;;;;;5099065;28;19966;-43
2023/06/14 11:49:40;;;;;;;;;;;21.80;84.70;;;;;;5117645;28;19915;-43
2023/06/14 11:52:05;;;;;;;;;;;21.80;84.70;;;;;;5117249;28;19937;-44
2023/06/14 11:54:34;;;;;;;;;;;21.80;84.70;;;;;;5117417;28;19951;-43
2023/06/14 11:57:00;;;;;;;;;;;21.80;84.70;;;;;;5117456;28;19916;-43
2023/06/14 11:59:25;;;;;;;;;;;21.80;85.10;;;;;;5117338;28;20251;-43
2023/06/14 12:01:54;;;;;;;;;;;21.80;84.90;;;;;;5117378;28;19915;-46
2023/06/14 12:04:29;;;;;;;;;;;21.80;84.70;;;;;;5116923;28;19919;-44
2023/06/14 12:06:55;;;;;;;;;;;21.80;84.60;;;;;;5116662;28;19960;-44
2023/06/14 12:09:23;;;;;;;;;;;21.80;84.80;;;;;;5116625;28;20367;-44
2023/06/14 12:11:49;;;;;;;;;;;21.80;85.10;;;;;;5116705;28;19915;-44
2023/06/14 12:14:15;;;;;;;;;;;21.80;85.50;;;;;;5117238;28;19908;-45
2023/06/14 12:16:43;;;;;;;;;;;21.80;85.10;;;;;;5116002;28;19919;-44
2023/06/14 12:19:16;;;;;;;;;;;21.80;84.80;;;;;;5098672;28;19912;-44
2023/06/14 12:21:42;;;;;;;;;;;21.80;85.50;;;;;;5116992;28;19919;-46
2023/06/14 12:24:08;;;;;;;;;;;21.80;85.60;;;;;;5116528;28;19908;-45
2023/06/14 12:26:33;;;;;;;;;;;21.80;85.00;;;;;;5116535;28;19908;-44
2023/06/14 12:28:59;;;;;;;;;;;21.80;84.90;;;;;;5116580;28;19961;-45
2023/06/14 12:31:25;;;;;;;;;;;21.80;84.90;;;;;;5116952;28;19908;-45
2023/06/14 12:33:51;;;;;;;;;;;21.80;85.10;;;;;;5116541;28;19957;-45
2023/06/14 12:36:17;;;;;;;;;;;21.80;85.00;;;;;;5116606;28;19955;-43
2023/06/14 12:38:42;;;;;;;;;;;21.80;85.80;;;;;;5116626;28;19912;-45
2023/06/14 12:41:08;;;;;;;;;;;21.80;85.50;;;;;;5116439;28;19914;-46
2023/06/14 12:43:33;;;;;;;;;;;21.80;85.80;;;;;;5116209;28;19947;-46
2023/06/14 12:45:59;;;;;;;;;;;21.80;85.80;;;;;;5116014;28;19962;-45
2023/06/14 12:48:27;;;;;;;;;;;21.80;85.40;;;;;;5116448;28;20006;-44
2023/06/14 12:50:52;;;;;;;;;;;21.80;86.40;;;;;;5116052;28;20365;-43
2023/06/14 12:53:18;;;;;;;;;;;21.90;86.60;;;;;;5116407;28;19942;-42
2023/06/14 12:55:44;;;;;;;;;;;21.90;85.90;;;;;;5116183;28;19912;-45
2023/06/14 12:58:12;;;;;;;;;;;21.80;85.50;;;;;;5116198;28;20350;-44
2023/06/14 13:00:37;;;;;;;;;;;21.80;85.10;;;;;;5116217;28;19914;-44
2023/06/14 13:03:03;;;;;;;;;;;21.80;85.30;;;;;;5116257;28;20270;-42
2023/06/14 13:05:30;;;;;;;;;;;21.80;84.90;;;;;;5116073;28;19915;-45
2023/06/14 13:07:56;;;;;;;;;;;21.80;84.90;;;;;;5116088;28;19920;-45
2023/06/14 13:10:22;;;;;;;;;;;21.80;85.00;;;;;;5116204;28;19960;-43
2023/06/14 13:12:47;;;;;;;;;;;21.80;85.20;;;;;;5115903;28;20328;-44
2023/06/14 13:15:13;;;;;;;;;;;21.80;85.00;;;;;;5115940;28;20035;-45
2023/06/14 13:17:38;;;;;;;;;;;21.80;85.00;;;;;;5115561;28;19911;-43
2023/06/14 13:20:05;;;;;;;;;;;21.80;85.50;;;;;;5115844;28;19912;-43
2023/06/14 13:22:30;;;;;;;;;;;21.80;84.50;;;;;;5115667;28;19968;-45
2023/06/14 13:24:56;;;;;;;;;;;21.80;85.40;;;;;;5097235;28;19912;-44
2023/06/14 13:27:21;;;;;;;;;;;21.80;86.30;;;;;;5114476;28;19908;-43
2023/06/14 13:29:47;;;;;;;;;;;21.80;85.70;;;;;;5115190;28;19907;-46
2023/06/14 13:32:12;;;;;;;;;;;21.80;85.70;;;;;;5115420;28;20261;-44
2023/06/14 13:34:37;;;;;;;;;;;21.90;86.60;;;;;;5097187;28;19915;-44
2023/06/14 13:37:03;;;;;;;;;;;21.90;87.10;;;;;;5115082;28;19916;-45
2023/06/14 13:39:28;;;;;;;;;;;21.80;87.20;;;;;;5115447;28;20316;-43
2023/06/14 13:41:54;;;;;;;;;;;21.80;86.80;;;;;;5115841;28;19908;-44
2023/06/14 13:44:21;;;;;;;;;;;21.80;86.50;;;;;;5115136;28;19908;-46
2023/06/14 13:46:46;;;;;;;;;;;21.80;86.10;;;;;;5115213;28;19920;-43
2023/06/14 13:49:12;;;;;;;;;;;21.80;85.60;;;;;;5115258;28;19961;-44
2023/06/14 13:51:38;;;;;;;;;;;21.80;85.40;;;;;;5115163;28;20343;-45
2023/06/14 13:54:04;;;;;;;;;;;21.80;85.40;;;;;;5115258;28;19954;-48
2023/06/14 13:56:29;;;;;;;;;;;21.80;85.70;;;;;;5115004;28;20410;-44
2023/06/14 13:58:55;;;;;;;;;;;21.80;85.40;;;;;;5115185;28;20302;-45
2023/06/14 14:01:22;;;;;;;;;;;21.80;86.40;;;;;;5115081;28;19960;-43
2023/06/14 14:03:49;;;;;;;;;;;21.80;85.70;;;;;;5115092;28;19908;-47
2023/06/14 14:06:15;;;;;;;;;;;21.80;85.30;;;;;;5115085;28;20044;-43
2023/06/14 14:08:40;;;;;;;;;;;21.90;86.20;;;;;;5114517;28;19969;-45
2023/06/14 14:11:07;;;;;;;;;;;21.80;85.60;;;;;;5096829;28;19912;-47